Weather reports worldwide

Advertisment
Leon/Virgen del Camino, Spain (8055): temperature & dewpoint: 12.07.2019 07:00:00 - 18.07.2019 07:00:00 (CEST)Leon/Virgen del Camino, Spain (8055): wind speed: 12.07.2019 07:00:00 - 18.07.2019 07:00:00 (CEST)Leon/Virgen del Camino, Spain (8055): wind direction: 12.07.2019 07:00:00 - 18.07.2019 07:00:00 (CEST)Leon/Virgen del Camino, Spain (8055): visibility: 12.07.2019 07:00:00 - 18.07.2019 07:00:00 (CEST)
Date & Time tt [°C] td [°C] ff [km/h] ff [kn] dd vv [km]
18.07.2019 07:00:00 10,2 6,5 5 3 NNW -
18.07.2019 06:00:00 10,7 5,4 5 3 WNW -
18.07.2019 05:00:00 11,5 5,8 8 4 NW -
18.07.2019 04:00:00 12,7 6,3 5 3 WNW -
18.07.2019 03:00:00 13,3 7,1 4 2 N -
18.07.2019 02:00:00 14,8 6,9 9 5 N -
18.07.2019 01:00:00 16,3 7,5 8 4 NE -
18.07.2019 00:00:00 16,6 8,0 11 6 N -
17.07.2019 23:00:00 19,1 8,4 5 3 N -
17.07.2019 22:00:00 21,3 8,9 18 10 N -
17.07.2019 21:00:00 24,5 11,1 16 9 NNE -
17.07.2019 20:00:00 24,3 10,9 18 10 NNE 40
17.07.2019 19:00:00 26,7 11,1 22 12 N -
17.07.2019 18:00:00 28,2 10,8 15 8 N -
17.07.2019 17:00:00 30,1 10,1 16 9 WSW 40
17.07.2019 16:00:00 29,5 10,1 9 5 ESE -
17.07.2019 15:00:00 28,5 10,2 9 5 WSW -
17.07.2019 14:00:00 26,6 10,4 8 4 WSW 40
17.07.2019 13:00:00 26,2 11,1 8 4 E -
17.07.2019 12:00:00 25,1 11,0 9 5 E -
17.07.2019 11:00:00 23,6 9,9 9 5 E 40
17.07.2019 10:00:00 21,6 11,8 11 6 NE -
17.07.2019 09:00:00 19,8 12,1 11 6 NNE -
17.07.2019 08:00:00 16,2 11,6 8 4 N 40
17.07.2019 07:00:00 14,8 11,2 11 6 N -
17.07.2019 06:00:00 14,9 11,1 13 7 N -
17.07.2019 05:00:00 16,3 11,7 9 5 NNE -
17.07.2019 04:00:00 16,4 12,0 9 5 N -
17.07.2019 03:00:00 16,9 11,8 9 5 N -
17.07.2019 02:00:00 17,9 11,9 9 5 NNW -
17.07.2019 01:00:00 19,2 12,2 8 4 ENE -
17.07.2019 00:00:00 19,5 12,1 9 5 N -
16.07.2019 23:00:00 22,0 11,4 9 5 N -
16.07.2019 22:00:00 24,0 9,6 11 6 E -
16.07.2019 21:00:00 26,4 8,8 16 9 ESE -
16.07.2019 20:00:00 28,1 5,6 8 4 ESE 70
16.07.2019 19:00:00 27,7 6,0 8 4 S -
16.07.2019 18:00:00 27,9 7,2 11 6 SE -
16.07.2019 17:00:00 27,9 7,2 11 6 ESE 75
16.07.2019 16:00:00 28,4 7,6 5 3 NE -
16.07.2019 15:00:00 26,7 7,7 9 5 S -
16.07.2019 14:00:00 25,7 8,7 9 5 ESE 65
16.07.2019 13:00:00 24,4 10,2 8 4 E -
16.07.2019 12:00:00 - - - - - -
16.07.2019 11:00:00 21,1 13,0 4 2 WSW 55
16.07.2019 10:00:00 - - - - - -
16.07.2019 09:00:00 - - - - - -
16.07.2019 08:00:00 14,9 12,2 0 0 N 25
16.07.2019 07:00:00 - - - - - -
16.07.2019 06:00:00 - - - - - -
16.07.2019 05:00:00 - - - - - -
16.07.2019 04:00:00 - - - - - -
16.07.2019 03:00:00 - - - - - -
16.07.2019 02:00:00 - - - - - -
16.07.2019 01:00:00 - - - - - -
16.07.2019 00:00:00 - - - - - -
15.07.2019 23:00:00 - - - - - -
15.07.2019 22:00:00 - - - - - -
15.07.2019 21:00:00 - - - - - -
15.07.2019 20:00:00 27,6 8,5 9 5 SSE 40
15.07.2019 19:00:00 - - - - - -
15.07.2019 18:00:00 - - - - - -
15.07.2019 17:00:00 27,6 9,8 13 7 SW 40
15.07.2019 16:00:00 - - - - - -
15.07.2019 15:00:00 - - - - - -
15.07.2019 14:00:00 24,3 11,3 9 5 SE 40
15.07.2019 13:00:00 - - - - - -
15.07.2019 12:00:00 - - - - - -
15.07.2019 11:00:00 19,4 10,7 8 4 W 30
15.07.2019 10:00:00 - - - - - -
15.07.2019 09:00:00 - - - - - -
15.07.2019 08:00:00 14,5 9,7 8 4 WSW 25
15.07.2019 07:00:00 - - - - - -
15.07.2019 06:00:00 - - - - - -
15.07.2019 05:00:00 - - - - - -
15.07.2019 04:00:00 - - - - - -
15.07.2019 03:00:00 - - - - - -
15.07.2019 02:00:00 - - - - - -
15.07.2019 01:00:00 - - - - - -
15.07.2019 00:00:00 - - - - - -
14.07.2019 23:00:00 - - - - - -
14.07.2019 22:00:00 - - - - - -
14.07.2019 21:00:00 - - - - - -
14.07.2019 20:00:00 27,8 12,2 15 8 SSW 50
14.07.2019 19:00:00 - - - - - -
14.07.2019 18:00:00 - - - - - -
14.07.2019 17:00:00 26,9 12,2 15 8 SE 50
14.07.2019 16:00:00 - - - - - -
14.07.2019 15:00:00 - - - - - -
14.07.2019 14:00:00 24,7 12,1 11 6 ESE 50
14.07.2019 13:00:00 - - - - - -
14.07.2019 12:00:00 - - - - - -
14.07.2019 11:00:00 20,8 14,0 11 6 SE 50
14.07.2019 10:00:00 - - - - - -
14.07.2019 09:00:00 - - - - - -
14.07.2019 08:00:00 16,0 13,7 0 0 N 40
14.07.2019 07:00:00 - - - - - -
14.07.2019 06:00:00 - - - - - -
14.07.2019 05:00:00 - - - - - -
14.07.2019 04:00:00 - - - - - -
14.07.2019 03:00:00 - - - - - -
14.07.2019 02:00:00 - - - - - -
14.07.2019 01:00:00 - - - - - -
14.07.2019 00:00:00 - - - - - -
13.07.2019 23:00:00 - - - - - -
13.07.2019 22:00:00 - - - - - -
13.07.2019 21:00:00 - - - - - -
13.07.2019 20:00:00 19,9 11,0 21 11 N 10
13.07.2019 19:00:00 - - - - - -
13.07.2019 18:00:00 - - - - - -
13.07.2019 17:00:00 - - - - - -
13.07.2019 16:00:00 - - - - - -
13.07.2019 15:00:00 - - - - - -
13.07.2019 14:00:00 - - - - - -
13.07.2019 13:00:00 - - - - - -
13.07.2019 12:00:00 - - - - - -
13.07.2019 11:00:00 - - - - - -
13.07.2019 10:00:00 - - - - - -
13.07.2019 09:00:00 - - - - - -
13.07.2019 08:00:00 - - - - - -
13.07.2019 07:00:00 - - - - - -
13.07.2019 06:00:00 20,0 14,4 8 4 S -
13.07.2019 05:00:00 21,4 13,3 4 2 SSE -
13.07.2019 04:00:00 22,0 13,9 8 4 NE -
13.07.2019 03:00:00 23,1 14,4 11 6 NE -
13.07.2019 02:00:00 23,8 14,5 5 3 SSE -
13.07.2019 01:00:00 24,3 14,6 11 6 N -
13.07.2019 00:00:00 24,9 13,4 13 7 N -
12.07.2019 23:00:00 26,2 12,6 11 6 WNW -
12.07.2019 22:00:00 26,9 12,5 4 2 WNW -
12.07.2019 21:00:00 31,1 11,0 13 7 SW -
12.07.2019 20:00:00 30,8 11,7 11 6 SSW 40
12.07.2019 19:00:00 31,8 11,6 18 10 SW -
12.07.2019 18:00:00 33,0 10,4 13 7 W -
12.07.2019 17:00:00 33,5 10,6 11 6 SSW 30
12.07.2019 16:00:00 32,5 9,4 9 5 SSW -
12.07.2019 15:00:00 31,9 8,8 11 6 SSW -
12.07.2019 14:00:00 30,4 8,7 5 3 W 40
12.07.2019 13:00:00 28,8 10,5 2 1 S -
12.07.2019 12:00:00 27,1 9,9 4 2 N -
12.07.2019 11:00:00 25,4 10,9 4 2 NE 40
12.07.2019 10:00:00 23,8 15,3 4 2 NNE -
12.07.2019 09:00:00 21,0 15,5 2 1 WNW -
12.07.2019 08:00:00 17,2 14,5 8 4 WSW 15
12.07.2019 07:00:00 15,8 13,1 2 1 WNW -

tt = temperature
td = dewpoint
ff = wind speed
dd = wind direction
vv = visibility

Next stations